Chrisopigi Lady — A8EQ9 — position and weather

sailwx.info

Track history (hours):
 
Tides and Currents Weather Stations Pressure Air Temp Water Temp Dewpoint Dewpoint Depression Visibility Wind Speed Wind Dir Waves Ship Positions

Chrisopigi Lady

Last reported at 2018-Jan-01 07:51 UTC. Time now 2018-Jan-20 17:24 UTC.
Position N 36°27' E 026°51'.
Warning: this ship's position is 19 days out of date.

Length 228 m; draft 13.4 m.

Type: Ship (hazmat cat A). MMSI: 636012314.

Date/timePositionNaut miles runAvg speedWind from/ knotsBaromVisibWave heightAir tempDewpointWater temp
2018-Jan-01 07:51N 36°27' E 026°51'411.8
2018-Jan-01 07:30N 36°31' E 026°49'611.5
2018-Jan-01 07:00N 36°36' E 026°47'1411.8
2018-Jan-01 05:49N 36°50' E 026°42'811.4
2018-Jan-01 05:05N 36°58' E 026°39'311.5
2018-Jan-01 04:52N 36°60' E 026°38'910.9
2018-Jan-01 04:00N 37°07' E 026°31'511.1
2018-Jan-01 03:31N 37°10' E 026°25'611.5
2018-Jan-01 03:01N 37°13' E 026°19'611.4
2018-Jan-01 02:31N 37°16' E 026°13'611.4
2018-Jan-01 02:00N 37°19' E 026°06'611.4
2018-Jan-01 01:31N 37°22' E 026°00'1110.8
2018-Jan-01 00:31N 37°30' E 025°51'  
2017-Dec-29 04:56N 40°36' E 027°06'0 0.0
2017-Dec-29 04:29N 40°36' E 027°06'0 0.0
2017-Dec-29 03:59N 40°36' E 027°06'0 0.0
2017-Dec-29 03:29N 40°36' E 027°06'0 0.0
2017-Dec-29 02:59N 40°36' E 027°06'0 0.0
2017-Dec-29 02:29N 40°36' E 027°06'0 0.0
2017-Dec-29 01:59N 40°36' E 027°06'0 0.1
2017-Dec-29 01:26N 40°36' E 027°06'  
2017-Dec-26 12:24N 40°53' E 028°39'512.2
2017-Dec-26 11:57N 40°54' E 028°47'512.1
2017-Dec-26 11:31N 40°56' E 028°53'4 7.5
2017-Dec-26 11:01N 40°58' E 028°57'3 6.6
2017-Dec-26 10:31N 41°01' E 028°60'611.4
2017-Dec-26 10:00N 41°06' E 029°04'  
2017-Dec-23 04:50N 43°54' E 038°38'512.1
2017-Dec-23 04:27N 43°55' E 038°44'512.0
2017-Dec-23 04:00N 43°57' E 038°51'611.9
2017-Dec-23 03:31N 43°59' E 038°58'510.8
2017-Dec-23 03:00N 44°01' E 039°05'1 1.3
2017-Dec-23 02:30N 44°02' E 039°06'0 0.1
2017-Dec-23 02:00N 44°01' E 039°06'0 0.1
2017-Dec-23 01:30N 44°01' E 039°06'0 0.1
2017-Dec-23 01:00N 44°01' E 039°06'0 0.0
2017-Dec-23 00:30N 44°01' E 039°06'0 0.0
2017-Dec-23 00:00N 44°01' E 039°06'0 0.1
2017-Dec-22 23:30N 44°01' E 039°06'0 0.0
2017-Dec-22 23:00N 44°01' E 039°06'0 0.0
2017-Dec-22 22:30N 44°01' E 039°06'0 0.0
2017-Dec-22 22:00N 44°01' E 039°06'0 0.0
2017-Dec-22 21:30N 44°01' E 039°06'0 0.0
2017-Dec-22 21:00N 44°01' E 039°06'0 0.0
2017-Dec-22 20:30N 44°01' E 039°06'0 0.0
2017-Dec-22 20:00N 44°01' E 039°06'0 0.0
2017-Dec-22 19:30N 44°01' E 039°06'0 0.0
2017-Dec-22 19:00N 44°01' E 039°06'0 0.0
2017-Dec-22 18:30N 44°01' E 039°06'0 0.0
2017-Dec-22 18:00N 44°01' E 039°06'0 0.0
2017-Dec-22 17:30N 44°01' E 039°06'0 0.0
2017-Dec-22 17:00N 44°01' E 039°06'0 0.0
2017-Dec-22 16:30N 44°01' E 039°06'0 0.0
2017-Dec-22 16:00N 44°01' E 039°06'0 0.0
2017-Dec-22 15:30N 44°01' E 039°06'0 0.0
2017-Dec-22 15:00N 44°01' E 039°06'0 0.1
2017-Dec-22 14:30N 44°02' E 039°06'0 0.0
2017-Dec-22 14:00N 44°02' E 039°06'0 0.0
2017-Dec-22 13:30N 44°02' E 039°06'0 0.0
2017-Dec-22 13:00N 44°02' E 039°06'0 0.0
2017-Dec-22 12:30N 44°02' E 039°06'0 0.0
2017-Dec-22 12:00N 44°01' E 039°06'0 0.0
2017-Dec-22 11:30N 44°01' E 039°06'0 0.0
2017-Dec-22 10:57N 44°01' E 039°06'0 0.0
2017-Dec-22 10:30N 44°01' E 039°06'0 0.0
2017-Dec-22 10:00N 44°01' E 039°06'0 0.1
2017-Dec-22 09:29N 44°01' E 039°06'0 0.0
2017-Dec-22 08:59N 44°01' E 039°06'0 0.1
2017-Dec-22 08:29N 44°01' E 039°06'0 0.0
2017-Dec-22 07:59N 44°01' E 039°06'  
Track history (hours):
 
Tides and Currents Weather Stations Pressure Air Temp Water Temp Dewpoint Dewpoint Depression Visibility Wind Speed Wind Dir Waves Ship Positions

Chrisopigi Lady

Last reported at 2018-Jan-01 07:51 UTC. Time now 2018-Jan-20 17:24 UTC.
Position N 36°27' E 026°51'.
Warning: this ship's position is 19 days out of date.

Length 228 m; draft 13.4 m.

Type: Ship (hazmat cat A). MMSI: 636012314.

Date/timePositionNaut miles runAvg speedWind from/ knotsBaromVisibWave heightAir tempDewpointWater temp
2018-Jan-01 07:51N 36°27' E 026°51'411.8
2018-Jan-01 07:30N 36°31' E 026°49'611.5
2018-Jan-01 07:00N 36°36' E 026°47'1411.8
2018-Jan-01 05:49N 36°50' E 026°42'811.4
2018-Jan-01 05:05N 36°58' E 026°39'311.5
2018-Jan-01 04:52N 36°60' E 026°38'910.9
2018-Jan-01 04:00N 37°07' E 026°31'511.1
2018-Jan-01 03:31N 37°10' E 026°25'611.5
2018-Jan-01 03:01N 37°13' E 026°19'611.4
2018-Jan-01 02:31N 37°16' E 026°13'611.4
2018-Jan-01 02:00N 37°19' E 026°06'611.4
2018-Jan-01 01:31N 37°22' E 026°00'1110.8
2018-Jan-01 00:31N 37°30' E 025°51'  
2017-Dec-29 04:56N 40°36' E 027°06'0 0.0
2017-Dec-29 04:29N 40°36' E 027°06'0 0.0
2017-Dec-29 03:59N 40°36' E 027°06'0 0.0
2017-Dec-29 03:29N 40°36' E 027°06'0 0.0
2017-Dec-29 02:59N 40°36' E 027°06'0 0.0
2017-Dec-29 02:29N 40°36' E 027°06'0 0.0
2017-Dec-29 01:59N 40°36' E 027°06'0 0.1
2017-Dec-29 01:26N 40°36' E 027°06'  
2017-Dec-26 12:24N 40°53' E 028°39'512.2
2017-Dec-26 11:57N 40°54' E 028°47'512.1
2017-Dec-26 11:31N 40°56' E 028°53'4 7.5
2017-Dec-26 11:01N 40°58' E 028°57'3 6.6
2017-Dec-26 10:31N 41°01' E 028°60'611.4
2017-Dec-26 10:00N 41°06' E 029°04'  
2017-Dec-23 04:50N 43°54' E 038°38'512.1
2017-Dec-23 04:27N 43°55' E 038°44'512.0
2017-Dec-23 04:00N 43°57' E 038°51'611.9
2017-Dec-23 03:31N 43°59' E 038°58'510.8
2017-Dec-23 03:00N 44°01' E 039°05'1 1.3
2017-Dec-23 02:30N 44°02' E 039°06'0 0.1
2017-Dec-23 02:00N 44°01' E 039°06'0 0.1
2017-Dec-23 01:30N 44°01' E 039°06'0 0.1
2017-Dec-23 01:00N 44°01' E 039°06'0 0.0
2017-Dec-23 00:30N 44°01' E 039°06'0 0.0
2017-Dec-23 00:00N 44°01' E 039°06'0 0.1
2017-Dec-22 23:30N 44°01' E 039°06'0 0.0
2017-Dec-22 23:00N 44°01' E 039°06'0 0.0
2017-Dec-22 22:30N 44°01' E 039°06'0 0.0
2017-Dec-22 22:00N 44°01' E 039°06'0 0.0
2017-Dec-22 21:30N 44°01' E 039°06'0 0.0
2017-Dec-22 21:00N 44°01' E 039°06'0 0.0
2017-Dec-22 20:30N 44°01' E 039°06'0 0.0
2017-Dec-22 20:00N 44°01' E 039°06'0 0.0
2017-Dec-22 19:30N 44°01' E 039°06'0 0.0
2017-Dec-22 19:00N 44°01' E 039°06'0 0.0
2017-Dec-22 18:30N 44°01' E 039°06'0 0.0
2017-Dec-22 18:00N 44°01' E 039°06'0 0.0
2017-Dec-22 17:30N 44°01' E 039°06'0 0.0
2017-Dec-22 17:00N 44°01' E 039°06'0 0.0
2017-Dec-22 16:30N 44°01' E 039°06'0 0.0
2017-Dec-22 16:00N 44°01' E 039°06'0 0.0
2017-Dec-22 15:30N 44°01' E 039°06'0 0.0
2017-Dec-22 15:00N 44°01' E 039°06'0 0.1
2017-Dec-22 14:30N 44°02' E 039°06'0 0.0
2017-Dec-22 14:00N 44°02' E 039°06'0 0.0
2017-Dec-22 13:30N 44°02' E 039°06'0 0.0
2017-Dec-22 13:00N 44°02' E 039°06'0 0.0
2017-Dec-22 12:30N 44°02' E 039°06'0 0.0
2017-Dec-22 12:00N 44°01' E 039°06'0 0.0
2017-Dec-22 11:30N 44°01' E 039°06'0 0.0
2017-Dec-22 10:57N 44°01' E 039°06'0 0.0
2017-Dec-22 10:30N 44°01' E 039°06'0 0.0
2017-Dec-22 10:00N 44°01' E 039°06'0 0.1
2017-Dec-22 09:29N 44°01' E 039°06'0 0.0
2017-Dec-22 08:59N 44°01' E 039°06'0 0.1
2017-Dec-22 08:29N 44°01' E 039°06'0 0.0
2017-Dec-22 07:59N 44°01' E 039°06'  

Dump ship's entire track history